Time;durP1;ratioP1;P1;durP2;ratioP2;P2;SDS_P1;SDS_P2;PMS_P1;PMS_P2;Temp;Humidity;BMP_temperature;BMP_pressure;BME280_temperature;BME280_humidity;BME280_pressure;Samples;Min_cycle;Max_cycle;Signal;HPM_P1;HPM_P2
2022/09/08 00:00:03;;;;;;;3.75;2.78;;;19.80;99.90;;;;;;5071490;28;20400;-44
2022/09/08 00:02:28;;;;;;;2.83;2.50;;;19.80;99.90;;;;;;5071174;28;20043;-43
2022/09/08 00:04:54;;;;;;;6.53;2.75;;;19.80;99.90;;;;;;5071397;28;20503;-44
2022/09/08 00:07:21;;;;;;;4.72;2.78;;;19.80;99.90;;;;;;5071565;28;20389;-45
2022/09/08 00:09:47;;;;;;;5.90;2.78;;;19.60;99.90;;;;;;5071314;28;20541;-46
2022/09/08 00:12:13;;;;;;;6.50;3.20;;;19.50;99.90;;;;;;5071145;28;20074;-43
2022/09/08 00:14:39;;;;;;;3.78;2.95;;;19.40;99.90;;;;;;5053394;28;20025;-44
2022/09/08 00:17:04;;;;;;;3.70;3.17;;;19.30;99.90;;;;;;5071400;28;20027;-41
2022/09/08 00:19:30;;;;;;;8.23;3.58;;;19.30;99.90;;;;;;5071276;28;20024;-46
2022/09/08 00:21:56;;;;;;;9.82;4.65;;;19.20;99.90;;;;;;5071034;28;20370;-44
2022/09/08 00:24:22;;;;;;;6.70;3.30;;;19.20;99.90;;;;;;5071070;28;20028;-45
2022/09/08 00:26:48;;;;;;;5.82;4.18;;;19.10;99.90;;;;;;5071256;28;20028;-43
2022/09/08 00:29:13;;;;;;;5.07;3.00;;;19.10;99.90;;;;;;5071237;28;20111;-45
2022/09/08 00:31:40;;;;;;;10.73;3.88;;;19.10;99.90;;;;;;5071316;28;20028;-44
2022/09/08 00:34:07;;;;;;;6.97;3.22;;;19.20;99.90;;;;;;5071061;28;20033;-47
2022/09/08 00:36:33;;;;;;;9.93;3.88;;;19.20;99.90;;;;;;5071157;28;20024;-47
2022/09/08 00:38:59;;;;;;;7.70;3.67;;;19.20;99.90;;;;;;5070919;28;20032;-45
2022/09/08 00:41:25;;;;;;;4.75;3.05;;;19.30;99.90;;;;;;5071139;28;20044;-43
2022/09/08 00:44:03;;;;;;;8.82;4.13;;;19.40;99.90;;;;;;5071051;28;20477;-44
2022/09/08 00:46:37;;;;;;;6.38;2.90;;;19.50;99.90;;;;;;5071144;28;20037;-44
2022/09/08 00:49:02;;;;;;;9.23;4.70;;;19.40;99.90;;;;;;5071073;28;20024;-44
2022/09/08 00:51:30;;;;;;;12.52;3.50;;;19.40;99.90;;;;;;5071048;28;20078;-44
2022/09/08 00:53:58;;;;;;;6.82;3.63;;;19.40;99.90;;;;;;5070730;28;20025;-46
2022/09/08 00:56:26;;;;;;;8.93;3.92;;;19.40;99.90;;;;;;5070947;28;20039;-48
2022/09/08 00:58:52;;;;;;;7.63;3.25;;;19.40;99.90;;;;;;5072651;28;20433;-45
2022/09/08 01:01:17;;;;;;;6.18;3.55;;;19.40;99.90;;;;;;5074602;28;20052;-45
2022/09/08 01:03:43;;;;;;;6.75;3.25;;;19.40;99.90;;;;;;5074402;28;20092;-44
2022/09/08 01:12:44;;;;;;;3.90;2.60;;;19.40;99.90;;;;;;5074335;28;20042;-43
2022/09/08 01:15:21;;;;;;;10.27;3.58;;;19.30;99.90;;;;;;5074586;28;20059;-43
2022/09/08 01:17:49;;;;;;;9.30;3.47;;;19.40;99.90;;;;;;5074531;28;20388;-43
2022/09/08 01:20:17;;;;;;;5.25;3.00;;;19.40;99.90;;;;;;5074309;28;20477;-46
2022/09/08 01:22:42;;;;;;;5.45;3.45;;;19.30;99.90;;;;;;5074126;28;20030;-43
2022/09/08 01:25:48;;;;;;;12.82;3.22;;;19.30;99.90;;;;;;5074473;28;20484;-45
2022/09/08 01:28:21;;;;;;;8.63;3.28;;;19.30;99.90;;;;;;5074247;28;20035;-44
2022/09/08 01:30:46;;;;;;;3.95;3.13;;;19.20;99.90;;;;;;5074250;28;20029;-44
2022/09/08 01:33:14;;;;;;;5.88;3.13;;;19.20;99.90;;;;;;5074050;28;20036;-43
2022/09/08 01:35:39;;;;;;;8.27;3.83;;;19.20;99.90;;;;;;5074220;28;20527;-46
2022/09/08 01:38:07;;;;;;;13.20;4.55;;;19.20;99.90;;;;;;5074074;28;20059;-42
2022/09/08 01:40:33;;;;;;;7.43;3.55;;;19.10;99.90;;;;;;5074163;28;20448;-44
2022/09/08 01:42:58;;;;;;;6.13;3.03;;;19.10;99.90;;;;;;5073679;28;20115;-43
2022/09/08 01:45:24;;;;;;;6.70;3.40;;;19.10;99.90;;;;;;5073941;28;20065;-45
2022/09/08 01:47:50;;;;;;;3.97;2.83;;;19.00;99.90;;;;;;5056280;28;20036;-45
2022/09/08 01:50:16;;;;;;;4.28;3.08;;;19.00;99.90;;;;;;5073901;28;20020;-44
2022/09/08 01:52:42;;;;;;;5.95;3.42;;;19.00;99.90;;;;;;5073591;28;20380;-48
2022/09/08 01:55:08;;;;;;;7.07;3.22;;;19.00;99.90;;;;;;5055742;28;20124;-43
2022/09/08 01:57:33;;;;;;;3.65;2.75;;;19.00;99.90;;;;;;5073420;28;20488;-42
2022/09/08 01:59:59;;;;;;;7.50;3.05;;;19.00;99.90;;;;;;5073629;28;20083;-46
2022/09/08 02:02:24;;;;;;;5.68;3.10;;;19.00;99.90;;;;;;5073393;28;20103;-44
2022/09/08 02:04:50;;;;;;;5.38;3.53;;;18.90;99.90;;;;;;5073534;28;20060;-45
2022/09/08 02:07:15;;;;;;;5.57;3.60;;;18.90;99.90;;;;;;5073606;28;20028;-45
2022/09/08 02:09:41;;;;;;;6.25;3.15;;;18.90;99.90;;;;;;5073180;28;20020;-42
2022/09/08 02:12:06;;;;;;;6.70;3.60;;;19.00;99.90;;;;;;5055180;28;20024;-46
2022/09/08 02:14:32;;;;;;;7.22;4.10;;;19.00;99.90;;;;;;5073412;28;20028;-44
2022/09/08 02:16:57;;;;;;;8.50;3.97;;;19.00;99.90;;;;;;5073637;28;20100;-46
2022/09/08 02:19:23;;;;;;;5.78;3.42;;;19.00;99.90;;;;;;5055249;28;20023;-46
2022/09/08 02:21:49;;;;;;;5.68;3.25;;;19.00;99.90;;;;;;5073243;28;20052;-39
2022/09/08 02:24:14;;;;;;;5.68;3.97;;;19.00;99.90;;;;;;5073150;28;20040;-47
2022/09/08 02:26:40;;;;;;;6.88;3.38;;;19.00;99.90;;;;;;5073356;28;20403;-46
2022/09/08 02:29:08;;;;;;;4.68;4.03;;;19.10;99.90;;;;;;5073658;28;20116;-44
2022/09/08 02:31:35;;;;;;;8.77;4.03;;;19.00;99.90;;;;;;5055085;28;20500;-46
2022/09/08 02:34:01;;;;;;;8.00;3.95;;;19.00;99.90;;;;;;5072826;28;20070;-45
2022/09/08 02:36:27;;;;;;;6.47;3.58;;;19.00;99.90;;;;;;5072939;28;20392;-46
2022/09/08 02:38:54;;;;;;;7.75;3.67;;;18.90;99.90;;;;;;5072918;28;20392;-45
2022/09/08 02:41:21;;;;;;;5.88;3.95;;;18.80;99.90;;;;;;5072918;28;20025;-46
2022/09/08 02:43:47;;;;;;;6.32;4.03;;;18.70;99.90;;;;;;5054598;28;20025;-48
2022/09/08 02:46:14;;;;;;;4.25;3.40;;;18.60;99.90;;;;;;5072761;28;20082;-45
2022/09/08 02:48:40;;;;;;;4.25;3.60;;;18.60;99.90;;;;;;5072632;28;20488;-44
2022/09/08 02:51:08;;;;;;;6.35;3.78;;;18.50;99.90;;;;;;5072869;28;20039;-47
2022/09/08 02:53:35;;;;;;;6.03;4.07;;;18.50;99.90;;;;;;5072264;28;20099;-48
2022/09/08 02:56:02;;;;;;;4.95;3.30;;;18.50;99.90;;;;;;5072596;28;20052;-46
2022/09/08 02:58:27;;;;;;;6.68;4.40;;;18.50;99.90;;;;;;5072038;28;20057;-47
2022/09/08 03:00:53;;;;;;;4.97;4.00;;;18.50;99.90;;;;;;5074249;28;20028;-44
2022/09/08 03:03:21;;;;;;;4.53;3.88;;;18.60;99.90;;;;;;5072313;28;20059;-47
2022/09/08 03:05:46;;;;;;;10.30;4.45;;;18.70;99.90;;;;;;5072138;28;20036;-45
2022/09/08 03:08:12;;;;;;;9.80;3.78;;;18.70;99.90;;;;;;5072543;28;20028;-44
2022/09/08 03:10:38;;;;;;;6.43;3.20;;;18.60;99.90;;;;;;5072437;28;20100;-43
2022/09/08 03:13:04;;;;;;;3.53;2.53;;;18.80;99.90;;;;;;5071962;28;20089;-43
2022/09/08 03:15:31;;;;;;;5.22;3.10;;;18.80;99.90;;;;;;5072335;28;20021;-45
2022/09/08 03:17:57;;;;;;;4.30;3.70;;;18.70;99.90;;;;;;5072210;28;20107;-46
2022/09/08 03:20:24;;;;;;;4.72;3.72;;;18.80;99.90;;;;;;5071663;28;20488;-45
2022/09/08 03:22:50;;;;;;;4.38;3.85;;;18.70;99.90;;;;;;5071807;28;20376;-44
2022/09/08 03:25:17;;;;;;;6.13;3.83;;;18.60;99.90;;;;;;5072038;28;20543;-43
2022/09/08 03:27:42;;;;;;;5.35;3.50;;;18.50;99.90;;;;;;5071993;28;20056;-44
2022/09/08 03:30:10;;;;;;;5.13;2.95;;;18.50;99.90;;;;;;5071978;28;20028;-46
2022/09/08 03:32:38;;;;;;;8.38;3.40;;;18.50;99.90;;;;;;5071362;28;20522;-46
2022/09/08 03:35:05;;;;;;;5.38;3.67;;;18.40;99.90;;;;;;5071799;28;20020;-49
2022/09/08 03:37:30;;;;;;;7.38;3.75;;;18.50;99.90;;;;;;5053962;28;20016;-44
2022/09/08 03:39:55;;;;;;;6.45;3.70;;;18.50;99.90;;;;;;5071782;28;20035;-48
2022/09/08 03:42:21;;;;;;;6.22;3.55;;;18.50;99.90;;;;;;5071749;28;20047;-44
2022/09/08 03:44:47;;;;;;;7.90;3.17;;;18.50;99.90;;;;;;5071725;28;20036;-46
2022/09/08 03:47:13;;;;;;;6.63;3.70;;;18.50;99.90;;;;;;5071751;28;20099;-44
2022/09/08 03:49:38;;;;;;;5.28;3.75;;;18.60;99.90;;;;;;5071713;28;20611;-43
2022/09/08 03:52:05;;;;;;;7.10;3.58;;;18.50;99.90;;;;;;5071442;28;20031;-45
2022/09/08 03:54:48;;;;;;;4.28;3.30;;;18.60;99.90;;;;;;5071564;28;20020;-48
2022/09/08 03:57:15;;;;;;;5.35;3.30;;;18.50;99.90;;;;;;5071930;28;20020;-45
2022/09/08 03:59:44;;;;;;;5.30;3.50;;;18.50;99.90;;;;;;5071206;28;20039;-45
2022/09/08 04:02:11;;;;;;;6.78;4.05;;;18.50;99.90;;;;;;5071710;28;20016;-45
2022/09/08 04:07:10;;;;;;;7.35;4.20;;;18.50;99.90;;;;;;5088538;22;20068;-50
2022/09/08 04:09:37;;;;;;;5.88;3.92;;;18.50;99.90;;;;;;5071411;28;20521;-46
2022/09/08 04:12:04;;;;;;;4.85;4.30;;;18.60;99.90;;;;;;5071070;28;20020;-40
2022/09/08 04:14:30;;;;;;;9.32;5.22;;;18.50;99.90;;;;;;5071731;28;20032;-48
2022/09/08 04:16:56;;;;;;;7.63;4.60;;;18.50;99.90;;;;;;5071432;28;20028;-49
2022/09/08 04:19:22;;;;;;;7.68;5.20;;;18.40;99.90;;;;;;5071322;28;20024;-46
2022/09/08 04:21:48;;;;;;;6.20;4.40;;;18.30;99.90;;;;;;5071177;28;20161;-47
2022/09/08 04:24:14;;;;;;;6.93;4.97;;;18.20;99.90;;;;;;5071207;28;20060;-47
2022/09/08 04:26:39;;;;;;;7.95;5.32;;;18.20;99.90;;;;;;5071310;28;20032;-48
2022/09/08 04:29:05;;;;;;;12.15;5.65;;;18.20;99.90;;;;;;5071278;28;20432;-45
2022/09/08 04:31:30;;;;;;;8.23;5.57;;;18.30;99.90;;;;;;5071263;28;20032;-48
2022/09/08 04:33:56;;;;;;;9.82;6.50;;;18.20;99.90;;;;;;5075064;28;20028;-38
2022/09/08 04:36:22;;;;;;;11.65;7.03;;;18.20;99.90;;;;;;5075428;28;20017;-45
2022/09/08 04:38:48;;;;;;;8.60;7.03;;;18.10;99.90;;;;;;5075249;28;20032;-44
2022/09/08 04:41:16;;;;;;;11.13;6.60;;;18.10;99.90;;;;;;5075554;28;20017;-43
2022/09/08 04:43:43;;;;;;;10.50;6.30;;;18.10;99.90;;;;;;5074951;28;20016;-42
2022/09/08 04:46:14;;;;;;;10.77;7.03;;;18.10;99.90;;;;;;5076809;28;20085;-42
2022/09/08 04:48:41;;;;;;;6.72;5.45;;;18.00;99.90;;;;;;5075878;28;20563;-38
2022/09/08 04:51:08;;;;;;;6.63;6.03;;;18.00;99.90;;;;;;5076059;28;20041;-42
2022/09/08 04:53:36;;;;;;;11.27;6.47;;;17.90;99.90;;;;;;5075210;28;20029;-40
2022/09/08 04:56:03;;;;;;;11.48;6.50;;;17.90;99.90;;;;;;5076574;28;20047;-45
2022/09/08 04:58:30;;;;;;;7.32;5.90;;;17.90;99.90;;;;;;5074451;28;20024;-44
2022/09/08 05:01:06;;;;;;;9.65;6.47;;;17.90;99.90;;;;;;5075198;28;20426;-47
2022/09/08 05:03:32;;;;;;;6.43;4.88;;;18.00;99.90;;;;;;5074532;28;20024;-45
2022/09/08 05:06:03;;;;;;;7.30;4.55;;;17.90;99.90;;;;;;5074665;28;20036;-45
2022/09/08 05:08:29;;;;;;;7.38;4.22;;;17.90;99.90;;;;;;5074698;28;20020;-45
2022/09/08 05:10:54;;;;;;;5.18;4.38;;;17.90;99.90;;;;;;5074603;28;20115;-41
2022/09/08 05:13:20;;;;;;;5.93;4.30;;;17.90;99.90;;;;;;5074234;28;20032;-47
2022/09/08 05:15:45;;;;;;;5.45;3.80;;;17.90;99.90;;;;;;5074999;28;20690;-44
2022/09/08 05:18:11;;;;;;;6.88;4.15;;;17.90;99.90;;;;;;5075180;28;20044;-45
2022/09/08 05:20:36;;;;;;;5.82;4.68;;;17.80;99.90;;;;;;5074454;28;20020;-46
2022/09/08 05:23:02;;;;;;;7.57;4.63;;;17.80;99.90;;;;;;5074481;28;20028;-45
2022/09/08 05:25:28;;;;;;;6.03;4.03;;;17.80;99.90;;;;;;5074451;28;20488;-46
2022/09/08 05:27:54;;;;;;;8.88;3.72;;;17.80;99.90;;;;;;5074359;28;20036;-46
2022/09/08 05:30:19;;;;;;;5.13;3.08;;;17.80;99.90;;;;;;5074250;28;20021;-46
2022/09/08 05:32:45;;;;;;;5.30;3.40;;;17.80;99.90;;;;;;5073706;28;20035;-48
2022/09/08 05:35:10;;;;;;;5.05;3.67;;;17.80;99.90;;;;;;5074101;28;20025;-44
2022/09/08 05:37:36;;;;;;;6.43;3.63;;;17.80;99.90;;;;;;5074047;28;20077;-45
2022/09/08 05:40:02;;;;;;;7.43;3.83;;;17.80;99.90;;;;;;5074167;28;20021;-47
2022/09/08 05:42:27;;;;;;;5.28;4.30;;;17.80;99.90;;;;;;5074071;28;20013;-46
2022/09/08 05:44:53;;;;;;;4.45;3.53;;;17.80;99.90;;;;;;5055516;28;20032;-40
2022/09/08 05:47:19;;;;;;;7.88;6.43;;;17.80;99.90;;;;;;5074010;28;20392;-44
2022/09/08 05:49:45;;;;;;;6.13;4.55;;;17.90;99.90;;;;;;5073830;28;20025;-44
2022/09/08 05:52:11;;;;;;;6.82;5.32;;;17.90;99.90;;;;;;5073628;28;20209;-47
2022/09/08 05:54:37;;;;;;;6.78;6.18;;;17.90;99.90;;;;;;5073640;28;20508;-43
2022/09/08 05:57:03;;;;;;;5.70;4.80;;;17.90;99.90;;;;;;5073478;28;20512;-45
2022/09/08 05:59:29;;;;;;;6.15;4.20;;;17.90;99.90;;;;;;5072768;28;20027;-46
2022/09/08 06:01:54;;;;;;;8.88;4.55;;;17.80;99.90;;;;;;5055494;28;20028;-47
2022/09/08 06:04:20;;;;;;;7.22;4.03;;;17.80;99.90;;;;;;5055650;28;20510;-44
2022/09/08 06:06:46;;;;;;;5.20;4.55;;;17.80;99.90;;;;;;5073534;28;20032;-45
2022/09/08 06:09:12;;;;;;;9.00;4.50;;;17.70;99.90;;;;;;5073446;28;20491;-45
2022/09/08 06:11:38;;;;;;;5.85;4.32;;;17.70;99.90;;;;;;5073471;28;20036;-44
2022/09/08 06:14:05;;;;;;;5.55;4.00;;;17.70;99.90;;;;;;5073064;28;20024;-45
2022/09/08 06:16:31;;;;;;;5.47;4.07;;;17.60;99.90;;;;;;5073627;28;20372;-44
2022/09/08 06:18:58;;;;;;;9.38;4.35;;;17.70;99.90;;;;;;5073295;28;20119;-44
2022/09/08 06:21:26;;;;;;;6.93;4.20;;;17.70;99.90;;;;;;5073602;28;20020;-45
2022/09/08 06:23:56;;;;;;;7.88;4.10;;;17.70;99.90;;;;;;5072923;28;20024;-44
2022/09/08 06:26:43;;;;;;;4.43;4.00;;;17.70;99.90;;;;;;5073554;28;20086;-43
2022/09/08 06:29:14;;;;;;;5.05;4.25;;;17.70;99.90;;;;;;5073117;28;20495;-43
2022/09/08 06:32:12;;;;;;;4.78;4.05;;;17.70;99.90;;;;;;5073132;28;20476;-46
2022/09/08 06:34:41;;;;;;;6.82;4.50;;;17.70;99.90;;;;;;5055144;28;20044;-45
2022/09/08 06:37:18;;;;;;;5.90;3.65;;;17.70;99.90;;;;;;5072974;28;20028;-43
2022/09/08 06:39:48;;;;;;;5.40;4.25;;;17.70;99.90;;;;;;5054736;28;20040;-45
2022/09/08 06:42:17;;;;;;;3.65;3.30;;;17.70;99.90;;;;;;5072800;28;20419;-44
2022/09/08 06:44:45;;;;;;;3.80;3.50;;;17.70;99.90;;;;;;5072940;28;20020;-46
2022/09/08 06:47:16;;;;;;;6.25;3.45;;;17.70;99.90;;;;;;5072746;28;20033;-44
2022/09/08 06:49:42;;;;;;;5.50;3.35;;;17.70;99.90;;;;;;5072746;28;20480;-44
2022/09/08 06:52:17;;;;;;;4.68;3.42;;;17.70;99.90;;;;;;5072426;28;20086;-42
2022/09/08 06:55:05;;;;;;;6.65;3.35;;;17.70;99.90;;;;;;5072490;28;20020;-44
2022/09/08 06:57:41;;;;;;;6.05;3.70;;;17.70;99.90;;;;;;5071552;28;20037;-46
2022/09/08 07:00:18;;;;;;;5.80;3.97;;;17.80;99.90;;;;;;5072539;28;20460;-47
2022/09/08 07:02:49;;;;;;;4.43;3.60;;;17.80;99.90;;;;;;5072396;28;20020;-44
2022/09/08 07:05:45;;;;;;;7.18;3.65;;;17.80;99.90;;;;;;5072331;28;20089;-45
2022/09/08 07:08:31;;;;;;;;;;;17.90;99.90;;;;;;5072880;28;20048;-44
2022/09/08 07:11:18;;;;;;;5.23;3.53;;;17.80;99.90;;;;;;5054558;28;19904;-45
2022/09/08 07:13:54;;;;;;;5.10;2.80;;;17.90;99.90;;;;;;5072088;28;20032;-44
2022/09/08 07:16:39;;;;;;;3.58;2.70;;;17.80;99.90;;;;;;5072408;28;20027;-45
2022/09/08 07:19:35;;;;;;;3.47;2.58;;;17.80;99.90;;;;;;5072092;28;20024;-49
2022/09/08 07:22:36;;;;;;;5.18;2.83;;;17.90;99.90;;;;;;5070210;28;20655;-45
2022/09/08 07:25:32;;;;;;;2.97;2.70;;;17.80;99.90;;;;;;5072049;28;20468;-44
2022/09/08 07:28:11;;;;;;;4.45;2.28;;;17.90;99.90;;;;;;5071907;28;20024;-44
2022/09/08 07:30:38;;;;;;;3.25;2.35;;;17.90;99.90;;;;;;5071867;28;20044;-47
2022/09/08 07:33:14;;;;;;;2.35;2.15;;;17.90;99.90;;;;;;5071641;28;20034;-45
2022/09/08 07:36:03;;;;;;;2.78;2.30;;;18.00;99.90;;;;;;5071856;28;20020;-44
2022/09/08 07:38:37;;;;;;;3.83;2.50;;;18.00;99.90;;;;;;5071729;28;20023;-44
2022/09/08 07:41:06;;;;;;;4.68;2.20;;;18.00;99.90;;;;;;5071885;28;20020;-45
2022/09/08 07:43:31;;;;;;;5.05;2.50;;;18.00;99.90;;;;;;5071550;28;20115;-46
2022/09/08 07:46:19;;;;;;;3.58;2.00;;;17.90;99.90;;;;;;5071735;28;20115;-39
2022/09/08 07:48:44;;;;;;;1.52;1.42;;;18.00;99.90;;;;;;5071800;28;20036;-39
2022/09/08 07:51:16;;;;;;;4.40;1.70;;;18.00;99.90;;;;;;5071725;28;20029;-48
2022/09/08 07:53:55;;;;;;;2.17;2.00;;;18.10;99.90;;;;;;5053248;28;20032;-43
2022/09/08 07:56:38;;;;;;;5.65;1.98;;;18.10;99.90;;;;;;5071717;28;20535;-45
2022/09/08 07:59:54;;;;;;;1.63;1.52;;;18.20;99.90;;;;;;5071226;28;20052;-39
2022/09/08 08:02:31;;;;;;;2.70;1.30;;;18.30;99.90;;;;;;4989802;28;20023;-41
2022/09/08 08:05:05;;;;;;;3.08;1.70;;;18.30;99.90;;;;;;5042902;28;20078;-41
2022/09/08 08:07:41;;;;;;;1.35;1.30;;;18.30;99.90;;;;;;5071475;28;20047;-48
2022/09/08 08:10:24;;;;;;;2.65;1.35;;;18.30;99.90;;;;;;5071520;28;20024;-43
2022/09/08 08:12:56;;;;;;;1.65;1.55;;;18.30;99.90;;;;;;5071237;28;20023;-45
2022/09/08 08:15:26;;;;;;;1.58;1.48;;;18.40;99.90;;;;;;5071251;28;20025;-45
2022/09/08 08:18:14;;;;;;;1.63;1.50;;;18.50;99.90;;;;;;5071207;28;20095;-43
2022/09/08 08:21:13;;;;;;;2.55;1.63;;;18.60;99.90;;;;;;5033155;28;20040;-46
2022/09/08 08:24:00;;;;;;;3.45;1.20;;;18.70;99.90;;;;;;5071134;28;20024;-39
2022/09/08 08:26:36;;;;;;;1.30;1.20;;;18.70;99.90;;;;;;5071156;28;20025;-43
2022/09/08 08:29:16;;;;;;;1.30;1.20;;;18.90;99.90;;;;;;5071363;28;20059;-43
2022/09/08 08:31:47;;;;;;;4.30;1.50;;;19.10;99.90;;;;;;5071238;28;20047;-49
2022/09/08 08:34:29;;;;;;;6.43;1.45;;;19.10;99.90;;;;;;5053111;28;20492;-45
2022/09/08 08:37:02;;;;;;;1.23;0.90;;;19.30;99.90;;;;;;5071227;28;20107;-43
2022/09/08 08:39:30;;;;;;;1.05;1.00;;;19.60;99.90;;;;;;5071198;28;20052;-44
2022/09/08 08:42:22;;;;;;;2.05;1.08;;;20.00;99.90;;;;;;5070952;28;20027;-42
2022/09/08 08:45:02;;;;;;;2.53;0.80;;;21.00;99.90;;;;;;5071192;28;20077;-39
2022/09/08 08:47:36;;;;;;;0.82;0.82;;;22.70;99.90;;;;;;5071078;28;20127;-46
2022/09/08 08:50:25;;;;;;;1.45;0.60;;;24.00;99.90;;;;;;5071070;28;20035;-47
2022/09/08 08:53:09;;;;;;;1.95;1.17;;;25.00;99.90;;;;;;5070698;28;20063;-46
2022/09/08 08:56:08;;;;;;;2.55;0.85;;;24.60;99.90;;;;;;5070745;28;20017;-45
2022/09/08 08:59:08;;;;;;;1.13;0.70;;;23.90;99.90;;;;;;5070592;28;20032;-45
2022/09/08 09:01:36;;;;;;;3.60;0.93;;;23.50;99.90;;;;;;5070898;28;20021;-49
2022/09/08 09:04:34;;;;;;;1.05;0.88;;;22.80;99.90;;;;;;5070799;28;20027;-42
2022/09/08 09:07:31;;;;;;;2.22;0.77;;;22.10;99.90;;;;;;5070806;28;20033;-43
2022/09/08 09:10:09;;;;;;;1.52;0.88;;;21.40;99.90;;;;;;5070682;28;20028;-41
2022/09/08 09:13:07;;;;;;;1.10;0.95;;;20.90;99.90;;;;;;5070603;28;20048;-43
2022/09/08 09:16:33;;;;;;;3.28;1.00;;;20.50;99.90;;;;;;5070936;28;20024;-43
2022/09/08 09:19:50;;;;;;;0.95;0.50;;;20.40;99.90;;;;;;4989971;28;20065;-47
2022/09/08 09:22:38;;;;;;;0.73;0.70;;;20.80;99.90;;;;;;5048961;28;20040;-44
2022/09/08 09:25:33;;;;;;;0.95;0.80;;;21.10;99.90;;;;;;5074384;28;20139;-44
2022/09/08 09:28:20;;;;;;;2.17;0.80;;;21.50;99.90;;;;;;5074222;28;20067;-41
2022/09/08 09:31:17;;;;;;;5.95;0.82;;;21.70;99.90;;;;;;5074185;28;20025;-39
2022/09/08 09:34:04;;;;;;;2.17;0.50;;;21.60;99.90;;;;;;5073966;28;20074;-41
2022/09/08 09:36:45;;;;;;;0.90;0.60;;;21.60;99.90;;;;;;5074178;28;20031;-40
2022/09/08 09:39:29;;;;;;;3.03;0.70;;;21.40;99.90;;;;;;5074086;28;20017;-46
2022/09/08 09:42:14;;;;;;;0.90;0.40;;;21.20;99.90;;;;;;5073912;28;20017;-42
2022/09/08 09:45:22;;;;;;;1.07;0.63;;;21.30;99.90;;;;;;5074072;28;20024;-45
2022/09/08 09:47:50;;;;;;;1.42;0.57;;;21.30;99.90;;;;;;5073876;28;20036;-46
2022/09/08 09:50:31;;;;;;;0.57;0.57;;;21.20;99.90;;;;;;5073870;28;20047;-44
2022/09/08 09:53:15;;;;;;;1.25;0.52;;;21.40;99.90;;;;;;5073935;28;20020;-43
2022/09/08 09:56:00;;;;;;;2.70;0.50;;;21.90;99.90;;;;;;5074060;28;20095;-42
2022/09/08 09:58:29;;;;;;;1.02;0.50;;;22.40;99.90;;;;;;5074502;28;20025;-47
2022/09/08 10:01:04;;;;;;;2.85;0.70;;;22.50;99.90;;;;;;5074262;28;20025;-45
2022/09/08 10:03:48;;;;;;;0.50;0.43;;;22.40;99.90;;;;;;5073874;28;20100;-43
2022/09/08 10:06:21;;;;;;;1.47;0.53;;;22.40;99.90;;;;;;5093084;22;20518;-42
2022/09/08 10:09:22;;;;;;;0.43;0.43;;;22.30;99.90;;;;;;5073709;28;20351;-45
2022/09/08 10:12:25;;;;;;;0.52;0.43;;;22.00;99.90;;;;;;5073382;28;20492;-45
2022/09/08 10:15:04;;;;;;;2.28;0.50;;;21.70;99.90;;;;;;5055158;28;20078;-45
2022/09/08 10:17:39;;;;;;;1.05;0.50;;;21.40;99.90;;;;;;5073705;28;20032;-44
2022/09/08 10:20:35;;;;;;;1.37;0.40;;;21.20;99.90;;;;;;5073225;28;20056;-41
2022/09/08 10:23:38;;;;;;;4.82;0.60;;;21.20;99.90;;;;;;5055497;28;20063;-43
2022/09/08 10:26:32;;;;;;;1.52;0.40;;;21.10;99.90;;;;;;5055224;28;20491;-46
2022/09/08 10:29:19;;;;;;;0.60;0.40;;;21.00;99.90;;;;;;5054982;28;20025;-49
2022/09/08 10:32:07;;;;;;;0.60;0.60;;;20.90;99.90;;;;;;5073009;28;20099;-47
2022/09/08 10:35:15;;;;;;;0.40;0.40;;;20.90;99.90;;;;;;5054838;28;20067;-45
2022/09/08 10:38:11;;;;;;;1.33;0.52;;;20.90;99.90;;;;;;5072679;28;20028;-48
2022/09/08 10:40:40;;;;;;;;;;;20.70;99.90;;;;;;5055185;28;20107;-46
2022/09/08 10:43:43;;;;;;;1.73;0.40;;;20.80;99.90;;;;;;5072309;28;19904;-43
2022/09/08 10:46:36;;;;;;;2.10;0.45;;;20.80;99.90;;;;;;5072436;28;20016;-47
2022/09/08 10:49:11;;;;;;;1.00;0.50;;;20.80;99.90;;;;;;5072067;28;20070;-45
2022/09/08 10:51:36;;;;;;;0.57;0.30;;;21.00;99.90;;;;;;5072374;28;20082;-44
2022/09/08 10:54:34;;;;;;;2.83;0.52;;;21.20;99.90;;;;;;5054092;28;20029;-45
2022/09/08 10:57:06;;;;;;;1.10;0.50;;;21.20;99.90;;;;;;5072510;28;20071;-45
2022/09/08 10:59:52;;;;;;;2.75;0.90;;;21.10;99.90;;;;;;5071681;28;20028;-44
2022/09/08 11:02:38;;;;;;;1.50;0.70;;;21.30;99.90;;;;;;5071744;28;20029;-48
2022/09/08 11:05:33;;;;;;;2.55;0.60;;;21.60;99.90;;;;;;5071969;28;20039;-44
2022/09/08 11:08:14;;;;;;;2.53;0.90;;;21.60;99.90;;;;;;5071790;28;20541;-43
2022/09/08 11:11:07;;;;;;;3.35;0.52;;;21.60;99.90;;;;;;5072173;28;20034;-46
2022/09/08 11:13:42;;;;;;;1.27;0.60;;;21.60;99.90;;;;;;5071949;28;20119;-47
2022/09/08 11:16:44;;;;;;;1.25;0.73;;;21.50;99.90;;;;;;5054132;28;20045;-45
2022/09/08 11:19:34;;;;;;;2.00;0.70;;;21.50;99.90;;;;;;5071719;28;20040;-45
2022/09/08 11:22:38;;;;;;;2.83;1.05;;;21.50;99.90;;;;;;5071745;28;20039;-43
2022/09/08 11:25:15;;;;;;;2.25;0.75;;;21.60;99.90;;;;;;5071778;28;20029;-45
2022/09/08 11:28:02;;;;;;;1.48;0.82;;;21.60;99.90;;;;;;5071980;28;20048;-44
2022/09/08 11:30:46;;;;;;;3.28;0.80;;;21.40;99.90;;;;;;5071594;28;20095;-43
2022/09/08 11:33:55;;;;;;;1.38;1.27;;;21.40;99.90;;;;;;5071379;28;20032;-44
2022/09/08 11:37:00;;;;;;;1.35;0.75;;;21.30;99.90;;;;;;4989918;28;20034;-46
2022/09/08 11:40:05;;;;;;;2.80;0.95;;;21.30;99.90;;;;;;4990087;28;20027;-44
2022/09/08 11:42:59;;;;;;;4.15;0.65;;;21.20;99.90;;;;;;5070218;28;20094;-45
2022/09/08 11:45:43;;;;;;;1.38;0.60;;;21.20;99.90;;;;;;5071525;28;20483;-44
2022/09/08 11:48:30;;;;;;;2.95;0.82;;;21.20;99.90;;;;;;5071795;28;20025;-46
2022/09/08 11:51:10;;;;;;;2.15;0.80;;;21.20;99.90;;;;;;5071507;28;20101;-46
2022/09/08 11:54:06;;;;;;;1.65;0.60;;;21.20;99.90;;;;;;5071071;28;20070;-43
2022/09/08 11:56:47;;;;;;;4.68;1.00;;;21.30;99.90;;;;;;5071350;28;20036;-46
2022/09/08 11:59:24;;;;;;;1.83;0.68;;;21.30;99.90;;;;;;5071051;28;20582;-44
2022/09/08 12:02:25;;;;;;;2.67;1.08;;;21.40;99.90;;;;;;5071212;28;20025;-44
2022/09/08 12:05:12;;;;;;;6.95;0.68;;;21.50;99.90;;;;;;5071403;28;20060;-44
2022/09/08 12:07:56;;;;;;;2.63;0.70;;;21.60;99.90;;;;;;5071428;28;20039;-46
2022/09/08 12:10:21;;;;;;;0.82;0.80;;;21.70;99.90;;;;;;5071668;28;20032;-44
2022/09/08 12:13:00;;;;;;;1.75;0.65;;;21.70;99.90;;;;;;5071026;28;20021;-47
2022/09/08 12:15:35;;;;;;;0.68;0.50;;;21.60;99.90;;;;;;5071466;28;20043;-42
2022/09/08 12:18:22;;;;;;;2.92;0.75;;;21.60;99.90;;;;;;5053408;28;20039;-47
2022/09/08 12:21:24;;;;;;;0.75;0.68;;;21.60;99.90;;;;;;5071284;28;20029;-49
2022/09/08 12:24:02;;;;;;;1.65;0.55;;;21.70;99.90;;;;;;5071067;28;20396;-46
2022/09/08 12:26:53;;;;;;;6.43;0.50;;;21.70;99.70;;;;;;5071190;28;20395;-47
2022/09/08 12:29:35;;;;;;;1.55;0.47;;;21.80;99.80;;;;;;5071304;28;20024;-44
2022/09/08 12:32:12;;;;;;;1.15;0.65;;;22.00;99.20;;;;;;5071391;28;20043;-44
2022/09/08 12:35:08;;;;;;;2.20;0.60;;;22.00;98.70;;;;;;5071158;28;20530;-43
2022/09/08 12:38:11;;;;;;;0.75;0.38;;;22.00;98.50;;;;;;5070775;28;20016;-43
2022/09/08 12:41:05;;;;;;;2.17;0.70;;;22.00;98.70;;;;;;5070704;28;20107;-45
2022/09/08 12:43:43;;;;;;;2.60;0.75;;;22.10;99.10;;;;;;5070892;28;20024;-45
2022/09/08 12:46:32;;;;;;;1.95;0.68;;;22.20;99.00;;;;;;5052938;28;20025;-47
2022/09/08 12:49:48;;;;;;;1.92;0.60;;;22.40;98.10;;;;;;5071097;28;20131;-47
2022/09/08 12:52:23;;;;;;;;;;;22.50;98.60;;;;;;5026176;28;20032;-45
2022/09/08 12:55:16;;;;;;;1.85;1.08;;;22.40;97.80;;;;;;5073053;28;19908;-44
2022/09/08 12:57:54;;;;;;;5.20;0.70;;;22.30;97.80;;;;;;5074056;28;20028;-44
2022/09/08 13:00:26;;;;;;;1.67;0.60;;;22.20;98.60;;;;;;5073801;28;20477;-44
2022/09/08 13:03:11;;;;;;;1.92;0.73;;;22.20;99.00;;;;;;5073618;28;20479;-45
2022/09/08 13:05:56;;;;;;;3.15;0.77;;;22.40;98.60;;;;;;5073683;28;20052;-45
2022/09/08 13:08:42;;;;;;;1.00;0.82;;;22.40;97.40;;;;;;5074533;28;20059;-43
2022/09/08 13:11:12;;;;;;;2.25;0.70;;;22.40;98.00;;;;;;5074357;28;20035;-44
2022/09/08 13:13:43;;;;;;;2.08;0.63;;;22.40;98.30;;;;;;5074100;28;20036;-44
2022/09/08 13:16:12;;;;;;;3.75;1.00;;;22.60;98.00;;;;;;5074197;28;20452;-45
2022/09/08 13:18:43;;;;;;;4.00;0.68;;;22.70;97.40;;;;;;5074480;28;20472;-46
2022/09/08 13:21:17;;;;;;;3.38;0.70;;;22.60;96.40;;;;;;5074323;28;20107;-46
2022/09/08 13:24:09;;;;;;;1.33;0.60;;;22.60;97.60;;;;;;5073551;28;20025;-44
2022/09/08 13:26:44;;;;;;;1.65;0.63;;;22.60;97.70;;;;;;5074046;28;20048;-43
2022/09/08 13:29:31;;;;;;;2.58;0.50;;;22.70;96.80;;;;;;5073933;28;20024;-44
2022/09/08 13:32:14;;;;;;;4.32;0.93;;;22.60;96.00;;;;;;5073954;28;20074;-40
2022/09/08 13:35:07;;;;;;;2.53;0.93;;;22.60;95.90;;;;;;5074094;28;20086;-44
2022/09/08 13:37:35;;;;;;;2.65;0.63;;;22.60;96.60;;;;;;5074152;28;20048;-43
2022/09/08 13:40:12;;;;;;;1.40;0.70;;;22.60;97.00;;;;;;5074016;28;20056;-43